Terminal Aerodrome Forecast
Issued by NWS

Home | Current Version | Previous Version | Graphics & Text | Print | Product List | Glossary On
Versions: 1 2 3 4 5 6 7 8 9 10 11 12 13 14 15 16 17 18 19
000
FTUS43 KBIS 242100 AAB
TAFMOT
TAF AMD
KMOT 242125Z 2421/2518 23015KT P6SM VCSH SCT020 OVC050
      TEMPO 2421/2501 3SM -SHRA BKN020
     FM250100 26015KT P6SM -SHRA OVC015
     FM251100 28015KT P6SM VCSH OVC008
     FM251500 29015KT P6SM BKN015=

USA.gov is the U.S. government's official web portal to all federal, state and local government web resources and services.